Time;durP1;ratioP1;P1;durP2;ratioP2;P2;SDS_P1;SDS_P2;PMS_P1;PMS_P2;Temp;Humidity;BMP_temperature;BMP_pressure;BME280_temperature;BME280_humidity;BME280_pressure;Samples;Min_cycle;Max_cycle;Signal;HPM_P1;HPM_P2
2023/02/18 00:00:16;;;;;;;2.27;0.90;;;;;;;5.66;100.00;100845.16;5023321;28;20425;-74
2023/02/18 00:02:42;;;;;;;3.30;0.77;;;;;;;5.56;100.00;100848.63;5042087;28;20223;-73
2023/02/18 00:05:09;;;;;;;0.90;0.53;;;;;;;5.53;100.00;100855.53;5046783;28;20211;-74
2023/02/18 00:07:36;;;;;;;6.83;0.90;;;;;;;5.52;100.00;100858.97;5022248;28;20199;-74
2023/02/18 00:10:04;;;;;;;3.97;0.90;;;;;;;5.56;100.00;100868.44;5039615;28;20210;-74
2023/02/18 00:12:31;;;;;;;2.73;0.80;;;;;;;5.49;100.00;100872.78;5043482;28;20223;-74
2023/02/18 00:14:59;;;;;;;2.73;0.70;;;;;;;5.47;100.00;100874.47;5025279;28;20286;-74
2023/02/18 00:17:25;;;;;;;1.90;0.83;;;;;;;5.44;100.00;100862.44;5026649;28;20245;-73
2023/02/18 00:19:52;;;;;;;1.60;0.53;;;;;;;5.37;100.00;100872.78;5044494;28;20229;-74
2023/02/18 00:22:18;;;;;;;2.37;0.63;;;;;;;5.44;100.00;100862.44;5042793;28;20214;-74
2023/02/18 00:24:44;;;;;;;2.13;0.80;;;;;;;5.40;100.00;100857.25;5043922;28;20571;-73
2023/02/18 00:27:11;;;;;;;2.27;0.70;;;;;;;5.36;100.00;100858.97;5043885;28;20683;-74
2023/02/18 00:29:37;;;;;;;1.80;0.80;;;;;;;5.31;100.00;100864.19;5023671;28;20210;-74
2023/02/18 00:32:07;;;;;;;1.70;0.90;;;;;;;5.27;100.00;100882.25;5025547;28;20242;-74
2023/02/18 00:34:33;;;;;;;4.97;1.30;;;;;;;5.22;100.00;100871.06;5025215;28;20195;-73
2023/02/18 00:37:03;;;;;;;2.33;1.10;;;;;;;5.23;100.00;100863.31;5022078;28;20665;-75
2023/02/18 00:39:29;;;;;;;2.63;0.87;;;;;;;5.17;100.00;100857.28;5020668;28;20239;-73
2023/02/18 00:41:56;;;;;;;1.63;0.57;;;;;;;5.12;100.00;100860.72;5028959;28;20588;-74
2023/02/18 00:44:22;;;;;;;4.10;0.97;;;;;;;5.09;100.00;100862.44;5022401;28;20651;-74
2023/02/18 00:46:50;;;;;;;4.03;1.17;;;;;;;5.01;100.00;100869.34;5026945;28;20199;-73
2023/02/18 00:49:17;;;;;;;2.17;0.90;;;;;;;4.97;100.00;100860.72;5018268;28;20207;-76
2023/02/18 00:51:44;;;;;;;2.73;0.90;;;;;;;4.94;100.00;100858.13;5031855;28;20215;-75
2023/02/18 00:54:10;;;;;;;2.67;0.70;;;;;;;4.87;100.00;100867.63;5040026;28;20200;-73
2023/02/18 00:56:37;;;;;;;4.80;0.73;;;;;;;5.02;100.00;100871.06;5022474;28;20576;-75
2023/02/18 00:59:03;;;;;;;2.50;0.70;;;;;;;5.02;100.00;100878.81;5024478;28;20203;-75
2023/02/18 01:01:30;;;;;;;3.00;1.00;;;;;;;4.99;100.00;100879.66;5047490;28;20199;-73
2023/02/18 01:03:56;;;;;;;2.90;1.07;;;;;;;5.06;100.00;100873.63;5025044;28;20293;-73
2023/02/18 01:06:24;;;;;;;3.53;0.90;;;;;;;4.98;100.00;100870.22;5030478;28;20316;-74
2023/02/18 01:08:50;;;;;;;4.60;1.00;;;;;;;5.01;100.00;100871.91;5028986;28;20199;-73
2023/02/18 01:11:17;;;;;;;2.80;0.83;;;;;;;4.97;100.00;100876.22;5045516;28;20275;-73
2023/02/18 01:13:43;;;;;;;2.47;0.60;;;;;;;4.85;100.00;100866.72;5027696;28;20232;-74
2023/02/18 01:16:10;;;;;;;1.47;0.70;;;;;;;4.80;100.00;100880.50;5027328;28;20826;-73
2023/02/18 01:18:37;;;;;;;4.50;0.80;;;;;;;4.86;100.00;100876.22;5025705;28;20663;-73
2023/02/18 01:21:07;;;;;;;3.63;1.03;;;;;;;4.76;100.00;100884.81;5026285;28;20203;-75
2023/02/18 01:23:37;;;;;;;6.10;1.43;;;;;;;4.87;100.00;100880.53;5019274;28;20223;-73
2023/02/18 01:26:04;;;;;;;3.30;0.77;;;;;;;4.74;100.00;100877.03;5037531;28;20568;-73
2023/02/18 01:28:31;;;;;;;2.40;0.60;;;;;;;4.65;100.00;100882.19;5028515;28;20198;-73
2023/02/18 01:30:57;;;;;;;2.43;0.87;;;;;;;4.60;100.00;100883.91;5026289;28;20203;-74
2023/02/18 01:33:25;;;;;;;1.07;0.60;;;;;;;4.68;100.00;100883.94;5023229;28;20712;-74
2023/02/18 01:35:53;;;;;;;3.97;1.27;;;;;;;4.58;100.00;100872.72;5023083;28;20208;-77
2023/02/18 01:38:22;;;;;;;2.70;1.00;;;;;;;4.58;100.00;100889.94;5045033;28;20234;-74
2023/02/18 01:40:52;;;;;;;6.20;1.27;;;;;;;4.65;100.00;100887.38;5025045;28;20273;-74
2023/02/18 01:43:21;;;;;;;1.67;0.70;;;;;;;4.60;100.00;100891.66;5038484;28;20203;-73
2023/02/18 01:45:58;;;;;;;1.47;0.73;;;;;;;4.61;100.00;100879.59;5018746;28;20219;-74
2023/02/18 01:48:27;;;;;;;3.37;1.27;;;;;;;4.56;100.00;100869.28;5031928;28;20229;-75
2023/02/18 01:50:56;;;;;;;3.67;1.00;;;;;;;4.50;100.00;100877.88;5049024;28;20210;-73
2023/02/18 01:53:28;;;;;;;2.53;0.80;;;;;;;4.56;100.00;100877.03;5047788;28;20214;-75
2023/02/18 01:55:56;;;;;;;1.53;0.87;;;;;;;4.46;100.00;100859.78;5027745;28;20710;-76
2023/02/18 01:58:24;;;;;;;5.20;1.00;;;;;;;4.42;100.00;100863.22;5029666;28;20217;-76
2023/02/18 02:00:51;;;;;;;4.87;0.50;;;;;;;4.45;100.00;100865.78;5049409;28;20547;-74
2023/02/18 02:03:17;;;;;;;3.80;0.80;;;;;;;4.60;100.00;100863.25;5029339;28;20219;-74
2023/02/18 02:05:43;;;;;;;3.77;0.80;;;;;;;4.54;100.00;100860.66;5029088;28;20211;-75
2023/02/18 02:08:14;;;;;;;2.50;0.83;;;;;;;4.54;100.00;100858.09;5020715;28;20246;-74
2023/02/18 02:11:04;;;;;;;1.67;0.60;;;;;;;4.49;100.00;100855.47;5032475;28;20764;-74
2023/02/18 02:13:43;;;;;;;4.50;0.80;;;;;;;4.48;100.00;100860.63;5028606;28;20231;-74
2023/02/18 02:16:19;;;;;;;5.93;1.00;;;;;;;4.50;100.00;100867.53;5027186;28;20664;-75
2023/02/18 02:18:56;;;;;;;2.40;0.87;;;;;;;4.47;100.00;100862.38;5044769;28;20305;-75
2023/02/18 02:21:52;;;;;;;4.13;0.77;;;;;;;4.37;100.00;100858.03;5030828;28;20213;-73
2023/02/18 02:24:52;;;;;;;2.03;0.70;;;;;;;4.39;100.00;100874.38;5024600;28;20573;-73
2023/02/18 02:27:28;;;;;;;4.30;0.80;;;;;;;4.40;100.00;100872.66;5022176;28;20199;-73
2023/02/18 02:30:31;;;;;;;2.80;0.93;;;;;;;4.43;100.00;100876.09;5033709;28;20701;-74
2023/02/18 02:33:49;;;;;;;3.37;0.87;;;;;;;4.48;100.00;100876.97;5045136;28;20265;-76
2023/02/18 02:36:21;;;;;;;4.20;1.00;;;;;;;4.53;100.00;100892.50;5024105;28;20767;-73
2023/02/18 02:38:55;;;;;;;5.70;0.77;;;;;;;4.54;100.00;100882.19;5030758;28;20199;-73
2023/02/18 02:41:33;;;;;;;2.37;0.73;;;;;;;4.43;100.00;100894.19;5025387;28;20200;-73
2023/02/18 02:44:12;;;;;;;1.77;0.90;;;;;;;4.48;100.00;100895.06;5025582;28;20302;-73
2023/02/18 02:46:43;;;;;;;2.33;1.07;;;;;;;4.39;100.00;100887.28;5033449;28;20207;-76
2023/02/18 02:49:24;;;;;;;4.97;1.07;;;;;;;4.29;100.00;100895.84;5031164;28;20281;-73
2023/02/18 02:51:58;;;;;;;4.33;0.90;;;;;;;4.32;100.00;100896.72;5028478;28;20305;-73
2023/02/18 02:54:27;;;;;;;4.03;0.80;;;;;;;4.26;100.00;100901.88;5045350;28;20654;-73
2023/02/18 02:57:08;;;;;;;3.63;1.17;;;;;;;4.38;100.00;100911.41;5045686;28;20572;-73
2023/02/18 02:59:41;;;;;;;3.53;1.00;;;;;;;4.32;100.00;100904.47;5041424;28;20206;-73
2023/02/18 03:02:22;;;;;;;2.63;0.73;;;;;;;4.31;100.00;100900.19;5025820;28;20290;-73
2023/02/18 03:05:01;;;;;;;4.10;0.93;;;;;;;4.30;100.00;100900.16;5039577;28;20591;-73
2023/02/18 03:07:46;;;;;;;4.63;1.03;;;;;;;4.28;100.00;100896.72;5025681;28;20278;-73
2023/02/18 03:10:26;;;;;;;2.83;1.13;;;;;;;4.21;100.00;100894.97;5041036;28;20204;-73
2023/02/18 03:13:02;;;;;;;1.20;0.60;;;;;;;4.20;100.00;100893.25;5024457;28;20219;-73
2023/02/18 03:15:38;;;;;;;2.10;0.90;;;;;;;4.16;100.00;100889.78;5029454;28;20206;-73
2023/02/18 03:18:13;;;;;;;1.70;0.80;;;;;;;4.25;100.00;100889.81;5025489;28;20210;-73
2023/02/18 03:20:47;;;;;;;5.30;0.67;;;;;;;4.20;100.00;100888.06;5025832;28;20201;-73
2023/02/18 03:23:20;;;;;;;3.23;0.93;;;;;;;4.27;100.00;100902.72;5039144;28;20220;-73
2023/02/18 03:25:47;;;;;;;5.67;0.77;;;;;;;4.36;100.00;100905.34;5042752;28;20210;-73
2023/02/18 03:28:18;;;;;;;1.50;0.40;;;;;;;4.38;100.00;100895.91;5026056;28;20199;-73
2023/02/18 03:30:50;;;;;;;2.20;0.60;;;;;;;4.42;100.00;100917.44;5021859;28;20203;-74
2023/02/18 03:33:23;;;;;;;3.27;0.97;;;;;;;4.45;100.00;100907.09;5023122;28;20313;-73
2023/02/18 03:35:50;;;;;;;4.53;0.90;;;;;;;4.48;100.00;100907.97;5044787;28;20187;-73
2023/02/18 03:38:23;;;;;;;2.10;0.50;;;;;;;4.51;100.00;100912.28;5038163;28;20213;-73
2023/02/18 03:40:50;;;;;;;2.77;0.80;;;;;;;4.51;100.00;100910.56;5029181;28;20199;-73
2023/02/18 03:43:17;;;;;;;2.93;0.83;;;;;;;4.55;100.00;100924.34;5039738;28;20577;-73
2023/02/18 03:45:44;;;;;;;3.30;0.87;;;;;;;4.59;100.00;100928.69;5025887;28;20225;-73
2023/02/18 03:48:10;;;;;;;3.13;0.90;;;;;;;4.58;100.00;100926.94;5041126;28;20545;-73
2023/02/18 03:50:36;;;;;;;2.00;0.63;;;;;;;4.63;100.00;100930.41;5025786;28;20298;-73
2023/02/18 03:53:03;;;;;;;2.00;0.67;;;;;;;4.65;100.00;100918.38;5019850;28;20868;-73
2023/02/18 03:55:30;;;;;;;3.20;0.70;;;;;;;4.74;100.00;100928.72;5040651;28;20203;-73
2023/02/18 03:57:57;;;;;;;3.90;1.00;;;;;;;4.82;100.00;100928.75;5025576;28;20198;-73
2023/02/18 04:00:24;;;;;;;2.33;0.77;;;;;;;4.83;100.00;100925.28;5027596;28;20199;-73
2023/02/18 04:02:50;;;;;;;2.70;0.97;;;;;;;4.85;100.00;100923.56;5043925;28;20730;-73
2023/02/18 04:05:17;;;;;;;2.33;0.73;;;;;;;4.83;100.00;100925.28;5024725;28;20333;-73
2023/02/18 04:07:43;;;;;;;4.23;0.50;;;;;;;4.91;100.00;100927.91;5045536;28;20195;-73
2023/02/18 04:10:10;;;;;;;4.17;0.53;;;;;;;4.94;100.00;100938.22;5039253;28;20656;-73
2023/02/18 04:12:38;;;;;;;1.83;0.70;;;;;;;4.92;100.00;100930.50;5043260;28;20379;-73
2023/02/18 04:15:05;;;;;;;4.53;0.80;;;;;;;4.94;100.00;100930.47;5041501;28;20226;-73
2023/02/18 04:17:33;;;;;;;1.80;0.83;;;;;;;4.95;100.00;100931.38;5020431;28;20195;-74
2023/02/18 04:19:59;;;;;;;3.63;1.07;;;;;;;4.98;100.00;100921.00;5040214;28;20196;-74
2023/02/18 04:22:25;;;;;;;3.00;0.70;;;;;;;5.00;100.00;100938.25;5026281;28;20215;-74
2023/02/18 04:24:52;;;;;;;4.70;1.07;;;;;;;5.05;100.00;100925.34;5043506;28;20230;-73
2023/02/18 04:27:18;;;;;;;2.17;0.90;;;;;;;5.10;100.00;100926.19;5027712;28;20203;-73
2023/02/18 04:29:48;;;;;;;1.13;0.57;;;;;;;5.07;100.00;100927.06;5041204;28;20239;-73
2023/02/18 04:32:14;;;;;;;3.50;0.53;;;;;;;5.11;100.00;100917.59;5021003;28;20236;-74
2023/02/18 04:34:41;;;;;;;1.77;0.47;;;;;;;5.11;100.00;100922.75;5042682;28;20218;-73
2023/02/18 04:37:07;;;;;;;1.30;0.53;;;;;;;5.10;100.00;100921.91;5025038;28;20199;-73
2023/02/18 04:39:34;;;;;;;1.20;0.77;;;;;;;5.17;100.00;100921.91;5043869;28;20203;-74
2023/02/18 04:42:00;;;;;;;2.23;0.60;;;;;;;5.19;100.00;100920.16;5045202;28;20971;-74
2023/02/18 04:44:27;;;;;;;7.67;0.97;;;;;;;5.22;100.00;100917.59;5046406;28;20207;-74
2023/02/18 04:46:55;;;;;;;2.90;0.73;;;;;;;5.21;100.00;100923.66;5042311;28;20215;-73
2023/02/18 04:49:22;;;;;;;2.57;0.80;;;;;;;5.21;100.00;100918.47;5044445;28;20224;-74
2023/02/18 04:51:48;;;;;;;4.27;0.80;;;;;;;5.27;100.00;100921.03;5022640;28;20223;-74
2023/02/18 04:54:14;;;;;;;3.10;0.80;;;;;;;5.30;100.00;100921.91;5040883;28;20283;-74
2023/02/18 04:56:41;;;;;;;1.97;0.60;;;;;;;5.36;100.00;100928.78;5041958;28;20191;-74
2023/02/18 04:59:07;;;;;;;2.67;0.60;;;;;;;5.37;100.00;100934.84;5044989;28;20631;-74
2023/02/18 05:01:33;;;;;;;1.50;0.90;;;;;;;5.38;100.00;100931.38;5040416;28;20227;-73
2023/02/18 05:04:01;;;;;;;2.83;0.77;;;;;;;5.39;100.00;100927.94;5036520;28;20207;-73
2023/02/18 05:06:29;;;;;;;1.60;0.70;;;;;;;5.31;100.00;100917.59;5039374;28;20211;-73
2023/02/18 05:08:55;;;;;;;1.90;0.57;;;;;;;5.30;100.00;100915.88;5040499;28;20210;-74
2023/02/18 05:11:22;;;;;;;3.00;0.80;;;;;;;5.30;100.00;100918.47;5020183;28;20215;-73
2023/02/18 05:13:48;;;;;;;2.87;0.70;;;;;;;5.37;100.00;100922.78;5042627;28;20664;-74
2023/02/18 05:16:14;;;;;;;4.20;0.60;;;;;;;5.35;100.00;100924.50;5044474;28;20231;-73
2023/02/18 05:18:41;;;;;;;2.60;0.70;;;;;;;5.31;100.00;100927.94;5043615;28;20729;-74
2023/02/18 05:21:10;;;;;;;2.90;0.83;;;;;;;5.38;100.00;100919.34;5043644;28;20191;-74
2023/02/18 05:23:37;;;;;;;1.83;1.00;;;;;;;5.37;100.00;100919.34;5041872;28;20222;-73
2023/02/18 05:26:04;;;;;;;5.13;1.13;;;;;;;5.41;100.00;100924.50;5042620;28;20211;-74
2023/02/18 05:28:30;;;;;;;1.30;0.50;;;;;;;5.39;100.00;100918.47;5026945;28;20203;-74
2023/02/18 05:30:57;;;;;;;1.13;0.43;;;;;;;5.34;100.00;100914.16;5038376;28;20206;-74
2023/02/18 05:33:24;;;;;;;4.50;0.80;;;;;;;5.31;100.00;100918.47;5038598;28;20241;-74
2023/02/18 05:35:50;;;;;;;2.13;0.70;;;;;;;5.37;100.00;100911.59;5044442;28;20249;-74
2023/02/18 05:38:18;;;;;;;4.37;0.87;;;;;;;5.36;100.00;100902.94;5023058;28;20209;-73
2023/02/18 05:40:44;;;;;;;3.03;0.73;;;;;;;5.36;100.00;100915.88;5044253;28;20211;-74
2023/02/18 05:43:11;;;;;;;2.53;0.60;;;;;;;5.42;100.00;100910.72;5041804;28;20592;-74
2023/02/18 05:45:37;;;;;;;3.73;0.67;;;;;;;5.43;100.00;100920.19;5043929;28;20215;-74
2023/02/18 05:48:04;;;;;;;0.80;0.60;;;;;;;5.42;100.00;100910.72;5041997;28;20533;-74
2023/02/18 05:50:30;;;;;;;3.40;1.03;;;;;;;5.40;100.00;100916.72;5044032;28;20746;-74
2023/02/18 05:52:57;;;;;;;0.77;0.37;;;;;;;5.37;100.00;100914.16;5043842;28;20223;-74
2023/02/18 05:55:24;;;;;;;1.20;0.50;;;;;;;5.42;100.00;100908.13;5039907;28;20485;-73
2023/02/18 05:57:51;;;;;;;1.80;0.70;;;;;;;5.50;100.00;100909.00;5038004;28;20192;-74
2023/02/18 06:00:18;;;;;;;3.10;1.00;;;;;;;5.49;100.00;100912.44;5019452;28;20909;-73
2023/02/18 06:02:44;;;;;;;3.80;1.43;;;;;;;5.47;100.00;100906.41;5038839;28;21022;-73
2023/02/18 06:05:11;;;;;;;4.47;1.20;;;;;;;5.45;100.00;100922.75;5021852;28;20199;-73
2023/02/18 06:07:38;;;;;;;2.53;1.00;;;;;;;5.49;100.00;100915.03;5040259;28;20691;-73
2023/02/18 06:10:06;;;;;;;1.33;0.70;;;;;;;5.51;100.00;100917.59;5024522;28;20210;-74
2023/02/18 06:12:33;;;;;;;1.53;0.57;;;;;;;5.55;100.00;100911.56;5037747;28;20276;-73
2023/02/18 06:15:00;;;;;;;1.40;0.63;;;;;;;5.54;100.00;100917.63;5044410;28;20199;-73
2023/02/18 06:17:26;;;;;;;3.33;0.97;;;;;;;5.56;100.00;100915.00;5042691;28;20829;-73
2023/02/18 06:19:52;;;;;;;2.00;0.80;;;;;;;5.54;100.00;100914.16;5023281;28;20234;-74
2023/02/18 06:22:19;;;;;;;0.93;0.50;;;;;;;5.53;100.00;100915.88;5041017;28;20229;-73
2023/02/18 06:24:45;;;;;;;1.40;0.50;;;;;;;5.62;100.00;100910.69;5025036;28;20202;-74
2023/02/18 06:27:12;;;;;;;2.03;1.00;;;;;;;5.64;100.00;100908.94;5031882;28;20699;-74
2023/02/18 06:29:40;;;;;;;4.20;0.73;;;;;;;5.67;100.00;100896.03;5041677;28;20721;-74
2023/02/18 06:32:06;;;;;;;3.33;0.80;;;;;;;5.62;100.00;100902.91;5040666;28;20234;-73
2023/02/18 06:34:32;;;;;;;4.07;1.37;;;;;;;5.60;100.00;100909.81;5040940;28;20207;-77
2023/02/18 06:36:59;;;;;;;1.67;0.70;;;;;;;5.57;100.00;100898.63;5046906;28;20561;-77
2023/02/18 06:39:25;;;;;;;0.57;0.50;;;;;;;5.69;100.00;100912.41;5050092;28;20536;-76
2023/02/18 06:41:51;;;;;;;0.73;0.60;;;;;;;5.73;100.00;100902.91;5046605;28;20219;-74
2023/02/18 06:44:18;;;;;;;1.67;0.70;;;;;;;5.71;100.00;100907.22;5049400;28;20282;-73
2023/02/18 06:46:46;;;;;;;1.33;0.60;;;;;;;5.76;100.00;100904.63;5023432;28;20609;-75
2023/02/18 06:49:12;;;;;;;2.40;0.83;;;;;;;5.79;100.00;100907.22;5046470;28;20203;-75
2023/02/18 06:51:39;;;;;;;2.73;0.73;;;;;;;5.82;100.00;100909.78;5028199;28;20601;-77
2023/02/18 06:54:06;;;;;;;2.90;0.80;;;;;;;5.78;100.00;100902.91;5024639;28;20199;-74
2023/02/18 06:56:32;;;;;;;3.60;0.70;;;;;;;5.79;100.00;100908.09;5028282;28;20203;-75
2023/02/18 06:58:59;;;;;;;1.13;0.60;;;;;;;5.81;100.00;100916.69;5048245;28;20200;-74
2023/02/18 07:01:25;;;;;;;2.70;0.60;;;;;;;5.81;100.00;100919.28;5041710;28;20196;-73
2023/02/18 07:03:53;;;;;;;3.27;0.83;;;;;;;5.86;100.00;100921.88;5042747;28;20204;-75
2023/02/18 07:06:19;;;;;;;1.23;0.67;;;;;;;5.88;100.00;100912.38;5027502;28;20211;-76
2023/02/18 07:08:46;;;;;;;2.83;0.63;;;;;;;5.88;100.00;100910.66;5046358;28;20196;-74
2023/02/18 07:11:12;;;;;;;1.97;0.57;;;;;;;5.94;100.00;100904.59;5045317;28;20203;-73
2023/02/18 07:13:39;;;;;;;2.13;0.50;;;;;;;5.93;100.00;100904.59;5047031;28;20700;-76
2023/02/18 07:16:05;;;;;;;2.03;0.97;;;;;;;5.92;100.00;100908.91;5023328;28;20224;-74
2023/02/18 07:18:32;;;;;;;3.43;0.83;;;;;;;5.93;100.00;100899.41;5042016;28;20286;-75
2023/02/18 07:20:59;;;;;;;2.37;0.73;;;;;;;5.94;100.00;100907.16;5042821;28;20191;-75
2023/02/18 07:23:26;;;;;;;1.03;0.70;;;;;;;5.95;100.00;100908.06;5023788;28;20231;-73
2023/02/18 07:25:52;;;;;;;2.83;0.80;;;;;;;6.00;100.00;100896.00;5041911;28;20573;-74
2023/02/18 07:28:19;;;;;;;2.77;0.93;;;;;;;5.98;100.00;100901.19;5015508;28;20240;-75
2023/02/18 07:30:45;;;;;;;3.30;0.87;;;;;;;5.98;100.00;100888.22;5044379;28;20234;-74
2023/02/18 07:33:13;;;;;;;2.80;0.97;;;;;;;6.00;100.00;100898.59;5044015;28;20573;-76
2023/02/18 07:35:39;;;;;;;2.27;0.80;;;;;;;5.99;100.00;100896.84;5045925;28;20191;-75
2023/02/18 07:38:07;;;;;;;1.87;0.60;;;;;;;6.00;100.00;100908.94;5024267;28;20307;-74
2023/02/18 07:40:33;;;;;;;4.77;0.80;;;;;;;5.98;100.00;100903.75;5042932;28;20195;-74
2023/02/18 07:42:59;;;;;;;1.60;0.70;;;;;;;5.95;100.00;100898.56;5023091;28;20232;-74
2023/02/18 07:45:26;;;;;;;2.47;0.80;;;;;;;5.94;100.00;100886.47;5028419;28;20206;-73
2023/02/18 07:47:52;;;;;;;3.53;0.87;;;;;;;5.91;100.00;100880.44;5045707;28;20425;-77
2023/02/18 07:50:19;;;;;;;1.47;0.70;;;;;;;5.89;100.00;100875.25;5026024;28;20215;-76
2023/02/18 07:52:45;;;;;;;0.70;0.70;;;;;;;5.92;100.00;100879.59;5047488;28;20224;-76
2023/02/18 07:55:13;;;;;;;1.63;0.77;;;;;;;5.91;100.00;100876.16;5041958;28;20675;-73
2023/02/18 08:00:20;;;;;;;1.80;0.80;;;;;;;5.91;100.00;100859.75;5044074;28;20213;-73
2023/02/18 08:02:47;;;;;;;1.17;0.70;;;;;;;5.89;100.00;100859.75;5046941;28;20211;-74
2023/02/18 08:05:13;;;;;;;1.57;0.57;;;;;;;5.84;100.00;100864.06;5024071;28;20192;-75
2023/02/18 08:07:40;;;;;;;3.30;0.70;;;;;;;5.82;100.00;100858.91;5048267;28;20207;-74
2023/02/18 08:10:07;;;;;;;1.10;0.87;;;;;;;5.78;100.00;100851.16;5044126;28;20560;-74
2023/02/18 08:12:35;;;;;;;5.50;1.17;;;;;;;5.72;100.00;100856.34;5043040;28;20224;-74
2023/02/18 08:15:01;;;;;;;5.17;0.80;;;;;;;5.71;100.00;100850.31;5044777;28;20280;-74
2023/02/18 08:17:27;;;;;;;3.43;1.40;;;;;;;5.74;100.00;100858.06;5045561;28;20204;-73
2023/02/18 08:19:54;;;;;;;4.90;1.93;;;;;;;5.74;100.00;100846.88;5025362;28;20206;-73
2023/02/18 08:22:20;;;;;;;4.00;2.10;;;;;;;5.75;100.00;100858.91;5044260;28;20224;-73
2023/02/18 08:24:47;;;;;;;6.33;3.50;;;;;;;5.75;100.00;100846.88;5042620;28;20191;-75
2023/02/18 08:27:13;;;;;;;4.03;2.07;;;;;;;5.73;100.00;100838.22;5047332;28;20245;-74
2023/02/18 08:29:41;;;;;;;4.60;1.50;;;;;;;5.73;100.00;100821.84;5045766;28;20261;-73
2023/02/18 08:32:07;;;;;;;1.27;0.67;;;;;;;5.67;100.00;100812.38;5046442;28;20268;-75
2023/02/18 08:34:33;;;;;;;1.67;0.93;;;;;;;5.65;100.00;100798.59;5045652;28;20221;-75
2023/02/18 08:37:01;;;;;;;2.53;1.00;;;;;;;5.61;100.00;100802.03;5041010;28;20553;-73
2023/02/18 08:39:27;;;;;;;3.37;1.20;;;;;;;5.57;100.00;100795.16;5041626;28;20214;-74
2023/02/18 08:41:54;;;;;;;2.50;1.00;;;;;;;5.52;100.00;100799.47;5044994;28;20786;-74
2023/02/18 08:44:21;;;;;;;3.70;1.73;;;;;;;5.48;100.00;100802.06;5041979;28;20222;-74
2023/02/18 08:46:49;;;;;;;1.73;0.93;;;;;;;5.48;100.00;100791.72;5041083;28;20208;-76
2023/02/18 08:49:16;;;;;;;2.50;0.70;;;;;;;5.50;100.00;100782.25;5035302;28;20204;-74
2023/02/18 08:51:45;;;;;;;2.37;0.80;;;;;;;5.55;100.00;100774.47;5042296;28;20222;-76
2023/02/18 08:54:11;;;;;;;1.27;0.80;;;;;;;5.58;100.00;100779.66;5042495;28;20531;-73
2023/02/18 08:56:38;;;;;;;1.07;0.80;;;;;;;5.57;100.00;100764.97;5039407;28;20199;-76
2023/02/18 08:59:04;;;;;;;2.00;1.20;;;;;;;5.61;100.00;100764.13;5024136;28;20226;-74
2023/02/18 09:01:31;;;;;;;3.50;1.60;;;;;;;5.63;100.00;100759.78;5025734;28;20210;-73
2023/02/18 09:03:59;;;;;;;4.17;1.10;;;;;;;5.67;100.00;100760.63;5043058;28;20717;-74
2023/02/18 09:06:26;;;;;;;1.07;0.70;;;;;;;5.71;100.00;100748.56;5027376;28;20725;-74
2023/02/18 09:08:52;;;;;;;1.40;0.90;;;;;;;5.70;100.00;100745.13;5037280;28;20900;-73
2023/02/18 09:11:19;;;;;;;8.43;1.20;;;;;;;5.76;100.00;100744.22;5038833;28;20201;-73
2023/02/18 09:13:46;;;;;;;1.80;1.40;;;;;;;5.75;100.00;100743.38;5036194;28;20219;-74
2023/02/18 09:16:17;;;;;;;2.00;1.20;;;;;;;5.73;100.00;100732.16;5043595;28;20195;-73
2023/02/18 09:18:44;;;;;;;2.30;0.93;;;;;;;5.73;100.00;100726.97;5041594;28;20549;-75
2023/02/18 09:21:14;;;;;;;3.57;1.10;;;;;;;5.69;100.00;100733.03;5018327;28;20270;-74
2023/02/18 09:23:41;;;;;;;3.13;1.60;;;;;;;5.67;100.00;100729.59;5040321;28;20346;-74
2023/02/18 09:26:13;;;;;;;3.50;1.00;;;;;;;5.67;100.00;100717.50;5020429;28;20205;-73
2023/02/18 09:28:39;;;;;;;5.00;1.10;;;;;;;5.62;100.00;100705.47;5045060;28;20265;-76
2023/02/18 09:31:07;;;;;;;4.10;1.30;;;;;;;5.63;100.00;100689.09;5042224;28;20579;-74
2023/02/18 09:33:35;;;;;;;1.70;1.10;;;;;;;5.69;100.00;100689.06;5024549;28;20693;-74
2023/02/18 09:36:03;;;;;;;5.63;2.00;;;;;;;5.68;100.00;100692.50;5039352;28;20210;-75
2023/02/18 09:38:31;;;;;;;5.77;1.40;;;;;;;5.66;100.00;100678.72;5038559;28;20192;-74
2023/02/18 09:41:01;;;;;;;6.77;1.77;;;;;;;5.61;100.00;100680.47;5022673;28;20628;-74
2023/02/18 09:43:33;;;;;;;1.77;1.13;;;;;;;5.61;100.00;100675.28;5038899;28;20225;-76
2023/02/18 09:46:03;;;;;;;1.43;1.27;;;;;;;5.62;100.00;100674.44;5037949;28;20669;-74
2023/02/18 09:48:33;;;;;;;3.43;1.73;;;;;;;5.59;100.00;100667.53;5042340;28;20260;-75
2023/02/18 09:51:00;;;;;;;4.20;1.23;;;;;;;5.61;100.00;100657.19;5042107;28;20658;-74
2023/02/18 09:53:27;;;;;;;3.07;1.30;;;;;;;5.61;100.00;100655.47;5019841;28;20580;-74
2023/02/18 09:55:57;;;;;;;4.37;1.40;;;;;;;5.61;100.00;100649.41;5040498;28;20191;-74
2023/02/18 09:58:26;;;;;;;2.60;1.20;;;;;;;5.59;100.00;100638.22;5042441;28;20201;-76
2023/02/18 10:01:00;;;;;;;2.70;1.40;;;;;;;5.65;100.00;100643.38;5045199;28;20278;-75
2023/02/18 10:03:29;;;;;;;3.27;1.50;;;;;;;5.64;100.00;100631.31;5033368;28;20203;-74
2023/02/18 10:05:58;;;;;;;1.07;0.93;;;;;;;5.66;100.00;100629.56;5020511;28;20286;-77
2023/02/18 10:08:27;;;;;;;3.27;1.70;;;;;;;5.63;100.00;100616.66;5025003;28;20220;-75
2023/02/18 10:10:55;;;;;;;4.10;2.13;;;;;;;5.61;100.00;100606.34;5046065;28;20205;-75
2023/02/18 10:13:24;;;;;;;3.50;1.50;;;;;;;5.62;100.00;100600.28;5046205;28;20241;-74
2023/02/18 10:15:51;;;;;;;2.10;1.60;;;;;;;5.63;100.00;100590.81;5044258;28;20202;-77
2023/02/18 10:18:25;;;;;;;3.37;1.47;;;;;;;5.68;100.00;100586.44;5046601;28;20199;-74
2023/02/18 10:20:56;;;;;;;1.93;1.50;;;;;;;5.67;100.00;100577.81;5026808;28;20565;-74
2023/02/18 10:23:25;;;;;;;2.63;1.87;;;;;;;5.72;100.00;100575.22;5047399;28;20215;-78
2023/02/18 10:25:51;;;;;;;4.23;1.90;;;;;;;5.71;100.00;100567.47;5044950;28;21591;-76
2023/02/18 10:28:24;;;;;;;7.57;4.33;;;;;;;5.73;100.00;100555.38;5049583;28;20712;-74
2023/02/18 10:30:57;;;;;;;5.67;3.40;;;;;;;5.78;100.00;100551.03;5023625;28;20646;-76
2023/02/18 10:33:33;;;;;;;4.47;1.67;;;;;;;5.81;100.00;100548.41;5024416;28;20809;-76
2023/02/18 10:36:07;;;;;;;2.50;1.67;;;;;;;5.77;100.00;100534.66;5045173;28;20196;-73
2023/02/18 10:38:43;;;;;;;2.80;1.67;;;;;;;5.78;100.00;100532.91;5045581;28;20207;-75
2023/02/18 10:41:19;;;;;;;3.37;2.00;;;;;;;5.79;100.00;100521.69;5030357;28;20205;-75
2023/02/18 10:43:59;;;;;;;3.40;1.63;;;;;;;5.76;100.00;100519.13;5027090;28;20212;-75
2023/02/18 10:46:33;;;;;;;2.07;1.40;;;;;;;5.79;100.00;100512.19;5047728;28;20208;-74
2023/02/18 10:49:14;;;;;;;2.70;1.50;;;;;;;5.76;100.00;100503.59;5029059;28;20209;-74
2023/02/18 10:51:47;;;;;;;1.93;1.67;;;;;;;5.76;100.00;100495.84;5045541;28;20215;-76
2023/02/18 10:54:14;;;;;;;2.60;1.70;;;;;;;5.77;100.00;100484.59;5026584;28;20295;-74
2023/02/18 10:56:46;;;;;;;2.57;2.10;;;;;;;5.74;100.00;100488.09;5048481;28;20195;-76
2023/02/18 10:59:19;;;;;;;5.23;1.97;;;;;;;5.67;100.00;100484.69;5043003;28;20288;-74
2023/02/18 11:01:52;;;;;;;4.57;2.13;;;;;;;5.65;100.00;100473.50;5022486;28;20220;-74
2023/02/18 11:04:20;;;;;;;2.40;2.13;;;;;;;5.62;100.00;100454.56;5047180;28;20969;-75
2023/02/18 11:06:49;;;;;;;1.70;1.60;;;;;;;5.62;100.00;100451.97;5040157;28;20200;-76
2023/02/18 11:09:41;;;;;;;2.53;1.67;;;;;;;5.68;100.00;100438.97;5042546;28;20660;-74
2023/02/18 11:12:15;;;;;;;1.63;1.23;;;;;;;5.63;100.00;100436.44;5039779;28;20603;-75
2023/02/18 11:14:45;;;;;;;1.63;1.50;;;;;;;5.61;100.00;100429.56;5024828;28;20353;-74
2023/02/18 11:17:19;;;;;;;2.03;1.40;;;;;;;5.63;100.00;100420.09;5048062;28;20219;-74
2023/02/18 11:19:52;;;;;;;2.43;1.40;;;;;;;5.65;100.00;100416.59;5045309;28;20215;-74
2023/02/18 11:22:24;;;;;;;2.00;1.47;;;;;;;5.69;100.00;100409.66;5029912;28;20308;-75
2023/02/18 11:24:56;;;;;;;4.13;2.07;;;;;;;5.69;100.00;100392.41;5025910;28;20204;-74
2023/02/18 11:27:28;;;;;;;3.93;2.63;;;;;;;5.69;100.00;100401.91;5039363;28;20684;-76
2023/02/18 11:30:01;;;;;;;2.67;2.23;;;;;;;5.64;100.00;100395.91;5044112;28;20655;-76
2023/02/18 11:32:30;;;;;;;3.90;2.30;;;;;;;5.64;100.00;100389.00;5037754;28;20307;-73
2023/02/18 11:34:56;;;;;;;3.80;2.80;;;;;;;5.68;100.00;100367.44;5019499;28;20209;-77